LTCK/MSR METAR and TAF weather

Enter ICAO airport designator
Station Type Date Time Source
LTCK METAR 2019/06/26 13:50 UTC NOAA

LTCK 261350Z 29007KT 250V320 9999 SCT040 34/08 Q1014


Station Type Date Time Source
LTCK Decoded METAR 2019/06/26 13:50 UTC NOAA

Mus Tur-Afb , Turkey (LTCK) 38-45N 041-40E
Jun 26, 2019 - 09:50 AM EDT / 2019.06.26 1350 UTC
Wind: from the WNW (290 degrees) at 8 MPH (7 KT) (direction variable):0
Visibility: greater than 7 mile(s):0
Sky conditions: partly cloudy
Temperature: 93 F (34 C)
Dew Point: 46 F (8 C)
Relative Humidity: 20%
Pressure (altimeter): 29.94 in. Hg (1014 hPa)
ob: LTCK 261350Z 29007KT 250V320 9999 SCT040 34/08 Q1014
cycle: 14

Station Type Date Time Source
LTCK TAF UTC NOAA

Error!

Example: see airport list